Rbd Italia — ICQC — position and weather

sailwx.info

Track history (hours):
 
Tides and Currents Weather Stations Pressure Air Temp Water Temp Dewpoint Dewpoint Depression Visibility Wind Speed Wind Dir Waves Ship Positions

Rbd Italia

Last reported at 2016-Jun-17 10:33 UTC. Time now 2016-Jun-24 22:19 UTC.
Position N 01°16' E 104°09'.

Length 229 m; draft 13 m.

Type: Cargo ship. MMSI: 247303200.

Date/timePositionNaut miles runAvg speedWind from/ knotsBaromVisibWave heightAir tempDewpointWater temp
2016-Jun-17 10:33N 01°16' E 104°09'8 7.9
2016-Jun-17 09:32N 01°17' E 104°01'1 0.5
2016-Jun-17 08:30N 01°18' E 104°01'0 0.0
2016-Jun-17 07:27N 01°18' E 104°01'0 0.0
2016-Jun-17 02:27N 01°18' E 104°01'0 0.1
2016-Jun-17 01:14N 01°18' E 104°01'2 3.6
2016-Jun-17 00:33N 01°16' E 103°59'3 3.4
2016-Jun-16 23:33N 01°14' E 103°56'6 5.6
2016-Jun-16 22:33N 01°11' E 103°51'9310.3
2016-Jun-16 13:31N 01°48' E 102°26'  
Track history (hours):
 
Tides and Currents Weather Stations Pressure Air Temp Water Temp Dewpoint Dewpoint Depression Visibility Wind Speed Wind Dir Waves Ship Positions

Rbd Italia

Last reported at 2016-Jun-17 10:33 UTC. Time now 2016-Jun-24 22:19 UTC.
Position N 01°16' E 104°09'.

Length 229 m; draft 13 m.

Type: Cargo ship. MMSI: 247303200.

Date/timePositionNaut miles runAvg speedWind from/ knotsBaromVisibWave heightAir tempDewpointWater temp
2016-Jun-17 10:33N 01°16' E 104°09'8 7.9
2016-Jun-17 09:32N 01°17' E 104°01'1 0.5
2016-Jun-17 08:30N 01°18' E 104°01'0 0.0
2016-Jun-17 07:27N 01°18' E 104°01'0 0.0
2016-Jun-17 02:27N 01°18' E 104°01'0 0.1
2016-Jun-17 01:14N 01°18' E 104°01'2 3.6
2016-Jun-17 00:33N 01°16' E 103°59'3 3.4
2016-Jun-16 23:33N 01°14' E 103°56'6 5.6
2016-Jun-16 22:33N 01°11' E 103°51'9310.3
2016-Jun-16 13:31N 01°48' E 102°26'  

Dump ship's entire track history